sensor_id;sensor_type;location;lat;lon;timestamp;pressure;altitude;pressure_sealevel;temperature;humidity
36380;BME280;22411;53.016;18.632;2023-03-13T00:00:03;99968.63;;;1.87;100.00
36380;BME280;22411;53.016;18.632;2023-03-13T00:02:32;99962.75;;;1.85;100.00
36380;BME280;22411;53.016;18.632;2023-03-13T00:04:58;99971.28;;;1.84;100.00
36380;BME280;22411;53.016;18.632;2023-03-13T00:07:24;99972.25;;;1.81;100.00
36380;BME280;22411;53.016;18.632;2023-03-13T00:09:50;99966.19;;;1.84;100.00
36380;BME280;22411;53.016;18.632;2023-03-13T00:12:17;99966.91;;;1.88;100.00
36380;BME280;22411;53.016;18.632;2023-03-13T00:14:43;99965.16;;;1.88;100.00
36380;BME280;22411;53.016;18.632;2023-03-13T00:17:11;99957.69;;;1.83;100.00
36380;BME280;22411;53.016;18.632;2023-03-13T00:19:42;99949.19;;;1.83;100.00
36380;BME280;22411;53.016;18.632;2023-03-13T00:22:10;99942.34;;;1.83;100.00
36380;BME280;22411;53.016;18.632;2023-03-13T00:24:36;99928.94;;;1.78;100.00
36380;BME280;22411;53.016;18.632;2023-03-13T00:27:02;99929.09;;;1.75;100.00
36380;BME280;22411;53.016;18.632;2023-03-13T00:29:32;99928.19;;;1.76;100.00
36380;BME280;22411;53.016;18.632;2023-03-13T00:32:00;99940.31;;;1.71;100.00
36380;BME280;22411;53.016;18.632;2023-03-13T00:34:27;99931.75;;;1.72;100.00
36380;BME280;22411;53.016;18.632;2023-03-13T00:36:53;99927.47;;;1.73;100.00
36380;BME280;22411;53.016;18.632;2023-03-13T00:39:20;99913.88;;;1.72;100.00
36380;BME280;22411;53.016;18.632;2023-03-13T00:41:46;99919.03;;;1.71;100.00
36380;BME280;22411;53.016;18.632;2023-03-13T00:44:13;99924.97;;;1.71;100.00
36380;BME280;22411;53.016;18.632;2023-03-13T00:46:39;99924.97;;;1.71;100.00
36380;BME280;22411;53.016;18.632;2023-03-13T00:49:05;99917.19;;;1.74;100.00
36380;BME280;22411;53.016;18.632;2023-03-13T00:51:31;99904.28;;;1.77;100.00
36380;BME280;22411;53.016;18.632;2023-03-13T00:53:58;99914.56;;;1.76;100.00
36380;BME280;22411;53.016;18.632;2023-03-13T00:56:27;99908.56;;;1.77;100.00
36380;BME280;22411;53.016;18.632;2023-03-13T00:58:53;99894.88;;;1.78;100.00
36380;BME280;22411;53.016;18.632;2023-03-13T01:01:25;99904.09;;;1.82;100.00
36380;BME280;22411;53.016;18.632;2023-03-13T01:03:52;99907.75;;;1.76;100.00
36380;BME280;22411;53.016;18.632;2023-03-13T01:06:21;99901.63;;;1.80;100.00
36380;BME280;22411;53.016;18.632;2023-03-13T01:08:47;99895.53;;;1.83;100.00
36380;BME280;22411;53.016;18.632;2023-03-13T01:11:17;99895.59;;;1.81;100.00
36380;BME280;22411;53.016;18.632;2023-03-13T01:13:44;99901.47;;;1.83;100.00
36380;BME280;22411;53.016;18.632;2023-03-13T01:16:17;99910.88;;;1.83;100.00
36380;BME280;22411;53.016;18.632;2023-03-13T01:18:48;99897.81;;;1.89;100.00
36380;BME280;22411;53.016;18.632;2023-03-13T01:21:15;99885.81;;;1.91;100.00
36380;BME280;22411;53.016;18.632;2023-03-13T01:23:43;99882.38;;;1.92;100.00
36380;BME280;22411;53.016;18.632;2023-03-13T01:26:10;99871.41;;;1.90;100.00
36380;BME280;22411;53.016;18.632;2023-03-13T01:28:36;99881.47;;;1.93;100.00
36380;BME280;22411;53.016;18.632;2023-03-13T01:31:18;99872.22;;;1.91;100.00
36380;BME280;22411;53.016;18.632;2023-03-13T01:33:45;99881.66;;;1.89;100.00
36380;BME280;22411;53.016;18.632;2023-03-13T01:36:12;99882.44;;;1.91;100.00
36380;BME280;22411;53.016;18.632;2023-03-13T01:38:38;99870.34;;;1.94;100.00
36380;BME280;22411;53.016;18.632;2023-03-13T01:41:06;99864.38;;;1.95;100.00
36380;BME280;22411;53.016;18.632;2023-03-13T01:43:35;99866.97;;;1.94;100.00
36380;BME280;22411;53.016;18.632;2023-03-13T01:46:11;99871.06;;;1.98;100.00
36380;BME280;22411;53.016;18.632;2023-03-13T01:49:02;99865.19;;;1.96;100.00
36380;BME280;22411;53.016;18.632;2023-03-13T01:54:13;99867.59;;;1.99;100.00
36380;BME280;22411;53.016;18.632;2023-03-13T01:59:14;99854.97;;;1.96;100.00
36380;BME280;22411;53.016;18.632;2023-03-13T02:01:43;99855.00;;;1.94;100.00
36380;BME280;22411;53.016;18.632;2023-03-13T02:04:11;99854.34;;;1.91;100.00
36380;BME280;22411;53.016;18.632;2023-03-13T02:06:40;99851.69;;;1.92;100.00
36380;BME280;22411;53.016;18.632;2023-03-13T02:09:13;99851.97;;;1.86;100.00
36380;BME280;22411;53.016;18.632;2023-03-13T02:11:50;99849.59;;;1.81;100.00
36380;BME280;22411;53.016;18.632;2023-03-13T02:14:19;99848.69;;;1.82;100.00
36380;BME280;22411;53.016;18.632;2023-03-13T02:16:47;99849.59;;;1.81;100.00
36380;BME280;22411;53.016;18.632;2023-03-13T02:19:19;99847.88;;;1.82;100.00
36380;BME280;22411;53.016;18.632;2023-03-13T02:24:39;99844.34;;;1.84;100.00
36380;BME280;22411;53.016;18.632;2023-03-13T02:27:09;99850.16;;;1.88;100.00
36380;BME280;22411;53.016;18.632;2023-03-13T02:29:35;99845.13;;;1.87;100.00
36380;BME280;22411;53.016;18.632;2023-03-13T02:32:01;99830.69;;;1.86;100.00
36380;BME280;22411;53.016;18.632;2023-03-13T02:34:31;99830.63;;;1.87;100.00
36380;BME280;22411;53.016;18.632;2023-03-13T02:36:59;99817.84;;;1.87;100.00
36380;BME280;22411;53.016;18.632;2023-03-13T02:39:28;99810.25;;;1.86;100.00
36380;BME280;22411;53.016;18.632;2023-03-13T02:41:56;99823.22;;;1.81;100.00
36380;BME280;22411;53.016;18.632;2023-03-13T02:44:24;99822.19;;;1.85;100.00
36380;BME280;22411;53.016;18.632;2023-03-13T02:46:51;99837.66;;;1.82;100.00
36380;BME280;22411;53.016;18.632;2023-03-13T02:49:26;99829.16;;;1.81;100.00
36380;BME280;22411;53.016;18.632;2023-03-13T02:51:55;99823.16;;;1.82;100.00
36380;BME280;22411;53.016;18.632;2023-03-13T02:54:27;99831.16;;;1.75;100.00
36380;BME280;22411;53.016;18.632;2023-03-13T02:56:57;99814.94;;;1.76;100.00
36380;BME280;22411;53.016;18.632;2023-03-13T02:59:24;99820.97;;;1.73;100.00
36380;BME280;22411;53.016;18.632;2023-03-13T03:01:50;99820.78;;;1.78;100.00
36380;BME280;22411;53.016;18.632;2023-03-13T03:04:22;99819.88;;;1.79;100.00
36380;BME280;22411;53.016;18.632;2023-03-13T03:06:49;99814.03;;;1.77;100.00
36380;BME280;22411;53.016;18.632;2023-03-13T03:09:16;99816.47;;;1.80;100.00
36380;BME280;22411;53.016;18.632;2023-03-13T03:11:43;99814.66;;;1.82;100.00
36380;BME280;22411;53.016;18.632;2023-03-13T03:14:10;99815.56;;;1.81;100.00
36380;BME280;22411;53.016;18.632;2023-03-13T03:16:37;99818.13;;;1.81;100.00
36380;BME280;22411;53.016;18.632;2023-03-13T03:19:03;99811.41;;;1.78;100.00
36380;BME280;22411;53.016;18.632;2023-03-13T03:21:32;99814.78;;;1.79;100.00
36380;BME280;22411;53.016;18.632;2023-03-13T03:23:58;99802.16;;;1.76;100.00
36380;BME280;22411;53.016;18.632;2023-03-13T03:26:24;99805.41;;;1.79;100.00
36380;BME280;22411;53.016;18.632;2023-03-13T03:28:51;99808.56;;;1.84;100.00
36380;BME280;22411;53.016;18.632;2023-03-13T03:31:17;99789.09;;;1.82;100.00
36380;BME280;22411;53.016;18.632;2023-03-13T03:33:44;99794.00;;;1.87;100.00
36380;BME280;22411;53.016;18.632;2023-03-13T03:36:15;99807.75;;;1.84;100.00
36380;BME280;22411;53.016;18.632;2023-03-13T03:38:42;99803.41;;;1.86;100.00
36380;BME280;22411;53.016;18.632;2023-03-13T03:41:10;99798.50;;;1.81;100.00
36380;BME280;22411;53.016;18.632;2023-03-13T03:43:37;99789.22;;;1.79;100.00
36380;BME280;22411;53.016;18.632;2023-03-13T03:46:03;99795.88;;;1.83;100.00
36380;BME280;22411;53.016;18.632;2023-03-13T03:48:29;99790.00;;;1.81;100.00
36380;BME280;22411;53.016;18.632;2023-03-13T03:50:55;99792.41;;;1.84;100.00
36380;BME280;22411;53.016;18.632;2023-03-13T03:53:22;99779.72;;;1.82;100.00
36380;BME280;22411;53.016;18.632;2023-03-13T03:55:48;99778.81;;;1.83;100.00
36380;BME280;22411;53.016;18.632;2023-03-13T03:58:14;99778.81;;;1.83;100.00
36380;BME280;22411;53.016;18.632;2023-03-13T04:00:44;99774.53;;;1.84;100.00
36380;BME280;22411;53.016;18.632;2023-03-13T04:03:11;99764.28;;;1.84;100.00
36380;BME280;22411;53.016;18.632;2023-03-13T04:05:38;99772.78;;;1.84;100.00
36380;BME280;22411;53.016;18.632;2023-03-13T04:08:05;99768.53;;;1.85;100.00
36380;BME280;22411;53.016;18.632;2023-03-13T04:10:31;99764.25;;;1.86;100.00
36380;BME280;22411;53.016;18.632;2023-03-13T04:12:58;99760.16;;;1.81;100.00
36380;BME280;22411;53.016;18.632;2023-03-13T04:15:24;99756.78;;;1.81;100.00
36380;BME280;22411;53.016;18.632;2023-03-13T04:17:50;99752.44;;;1.83;100.00
36380;BME280;22411;53.016;18.632;2023-03-13T04:20:16;99749.88;;;1.83;100.00
36380;BME280;22411;53.016;18.632;2023-03-13T04:22:42;99749.75;;;1.86;100.00
36380;BME280;22411;53.016;18.632;2023-03-13T04:25:09;99740.63;;;1.80;100.00
36380;BME280;22411;53.016;18.632;2023-03-13T04:27:35;99736.34;;;1.81;100.00
36380;BME280;22411;53.016;18.632;2023-03-13T04:30:01;99741.47;;;1.81;100.00
36380;BME280;22411;53.016;18.632;2023-03-13T04:32:27;99736.25;;;1.82;100.00
36380;BME280;22411;53.016;18.632;2023-03-13T04:34:54;99733.78;;;1.81;100.00
36380;BME280;22411;53.016;18.632;2023-03-13T04:37:20;99734.63;;;1.81;100.00
36380;BME280;22411;53.016;18.632;2023-03-13T04:39:46;99735.44;;;1.82;100.00
36380;BME280;22411;53.016;18.632;2023-03-13T04:42:12;99736.00;;;1.89;100.00
36380;BME280;22411;53.016;18.632;2023-03-13T04:44:38;99731.66;;;1.91;100.00
36380;BME280;22411;53.016;18.632;2023-03-13T04:47:05;99733.44;;;1.89;100.00
36380;BME280;22411;53.016;18.632;2023-03-13T04:49:31;99743.53;;;1.92;100.00
36380;BME280;22411;53.016;18.632;2023-03-13T04:51:57;99735.78;;;1.93;100.00
36380;BME280;22411;53.016;18.632;2023-03-13T04:54:23;99727.41;;;1.90;100.00
36380;BME280;22411;53.016;18.632;2023-03-13T04:56:49;99732.41;;;1.93;100.00
36380;BME280;22411;53.016;18.632;2023-03-13T04:59:15;99726.81;;;2.03;100.00
36380;BME280;22411;53.016;18.632;2023-03-13T05:01:42;99731.16;;;2.01;100.00
36380;BME280;22411;53.016;18.632;2023-03-13T05:04:09;99733.72;;;2.01;100.00
36380;BME280;22411;53.016;18.632;2023-03-13T05:06:35;99729.06;;;2.09;100.00
36380;BME280;22411;53.016;18.632;2023-03-13T05:09:02;99724.59;;;2.15;100.00
36380;BME280;22411;53.016;18.632;2023-03-13T05:11:28;99727.84;;;2.18;100.00
36380;BME280;22411;53.016;18.632;2023-03-13T05:13:55;99729.34;;;2.22;100.00
36380;BME280;22411;53.016;18.632;2023-03-13T05:16:21;99723.06;;;2.29;100.00
36380;BME280;22411;53.016;18.632;2023-03-13T05:18:47;99719.47;;;2.33;100.00
36380;BME280;22411;53.016;18.632;2023-03-13T05:21:13;99715.69;;;2.41;100.00
36380;BME280;22411;53.016;18.632;2023-03-13T05:23:39;99719.09;;;2.41;100.00
36380;BME280;22411;53.016;18.632;2023-03-13T05:26:05;99720.06;;;2.39;100.00
36380;BME280;22411;53.016;18.632;2023-03-13T05:28:31;99716.47;;;2.43;100.00
36380;BME280;22411;53.016;18.632;2023-03-13T05:30:57;99706.16;;;2.44;100.00
36380;BME280;22411;53.016;18.632;2023-03-13T05:33:23;99700.22;;;2.44;100.00
36380;BME280;22411;53.016;18.632;2023-03-13T05:35:49;99695.03;;;2.45;100.00
36380;BME280;22411;53.016;18.632;2023-03-13T05:38:16;99694.94;;;2.47;100.00
36380;BME280;22411;53.016;18.632;2023-03-13T05:40:42;99689.78;;;2.48;100.00
36380;BME280;22411;53.016;18.632;2023-03-13T05:43:10;99687.56;;;2.58;100.00
36380;BME280;22411;53.016;18.632;2023-03-13T05:45:36;99682.47;;;2.58;100.00
36380;BME280;22411;53.016;18.632;2023-03-13T05:48:03;99678.56;;;2.68;100.00
36380;BME280;22411;53.016;18.632;2023-03-13T05:50:29;99677.50;;;2.72;100.00
36380;BME280;22411;53.016;18.632;2023-03-13T05:52:55;99686.19;;;2.70;100.00
36380;BME280;22411;53.016;18.632;2023-03-13T05:55:21;99675.56;;;2.77;100.00
36380;BME280;22411;53.016;18.632;2023-03-13T05:57:48;99679.94;;;2.75;100.00
36380;BME280;22411;53.016;18.632;2023-03-13T06:00:16;99673.91;;;2.76;100.00
36380;BME280;22411;53.016;18.632;2023-03-13T06:02:43;99672.09;;;2.78;100.00
36380;BME280;22411;53.016;18.632;2023-03-13T06:05:09;99675.94;;;2.87;100.00
36380;BME280;22411;53.016;18.632;2023-03-13T06:07:36;99681.72;;;2.91;100.00
36380;BME280;22411;53.016;18.632;2023-03-13T06:10:03;99689.94;;;2.97;100.00
36380;BME280;22411;53.016;18.632;2023-03-13T06:12:30;99680.38;;;3.01;100.00
36380;BME280;22411;53.016;18.632;2023-03-13T06:14:56;99674.41;;;3.00;100.00
36380;BME280;22411;53.016;18.632;2023-03-13T06:17:22;99683.59;;;3.04;100.00
36380;BME280;22411;53.016;18.632;2023-03-13T06:19:50;99674.72;;;3.11;100.00
36380;BME280;22411;53.016;18.632;2023-03-13T06:22:16;99666.13;;;3.12;100.00
36380;BME280;22411;53.016;18.632;2023-03-13T06:24:42;99660.75;;;3.17;100.00
36380;BME280;22411;53.016;18.632;2023-03-13T06:27:15;99652.84;;;3.22;100.00
36380;BME280;22411;53.016;18.632;2023-03-13T06:29:41;99652.53;;;3.28;100.00
36380;BME280;22411;53.016;18.632;2023-03-13T06:32:08;99647.75;;;3.37;100.00
36380;BME280;22411;53.016;18.632;2023-03-13T06:34:34;99646.84;;;3.38;100.00
36380;BME280;22411;53.016;18.632;2023-03-13T06:37:00;99652.97;;;3.52;100.00
36380;BME280;22411;53.016;18.632;2023-03-13T06:39:26;99646.63;;;3.59;100.00
36380;BME280;22411;53.016;18.632;2023-03-13T06:41:52;99648.53;;;3.71;100.00
36380;BME280;22411;53.016;18.632;2023-03-13T06:44:18;99649.19;;;3.75;100.00
36380;BME280;22411;53.016;18.632;2023-03-13T06:46:45;99646.13;;;3.84;100.00
36380;BME280;22411;53.016;18.632;2023-03-13T06:49:11;99638.28;;;3.87;100.00
36380;BME280;22411;53.016;18.632;2023-03-13T06:51:37;99632.91;;;3.91;100.00
36380;BME280;22411;53.016;18.632;2023-03-13T06:54:03;99630.66;;;4.01;100.00
36380;BME280;22411;53.016;18.632;2023-03-13T06:56:29;99636.94;;;4.11;100.00
36380;BME280;22411;53.016;18.632;2023-03-13T06:58:55;99631.22;;;4.22;100.00
36380;BME280;22411;53.016;18.632;2023-03-13T07:01:21;99632.59;;;4.28;100.00
36380;BME280;22411;53.016;18.632;2023-03-13T07:03:48;99627.13;;;4.34;100.00
36380;BME280;22411;53.016;18.632;2023-03-13T07:06:16;99618.25;;;4.39;100.00
36380;BME280;22411;53.016;18.632;2023-03-13T07:08:43;99630.72;;;4.45;100.00
36380;BME280;22411;53.016;18.632;2023-03-13T07:11:11;99624.25;;;4.54;100.00
36380;BME280;22411;53.016;18.632;2023-03-13T07:13:37;99621.13;;;4.63;100.00
36380;BME280;22411;53.016;18.632;2023-03-13T07:16:06;99619.69;;;4.73;100.00
36380;BME280;22411;53.016;18.632;2023-03-13T07:18:34;99620.75;;;4.85;100.00
36380;BME280;22411;53.016;18.632;2023-03-13T07:21:03;99624.38;;;4.95;100.00
36380;BME280;22411;53.016;18.632;2023-03-13T07:23:34;99605.53;;;4.96;100.00
36380;BME280;22411;53.016;18.632;2023-03-13T07:26:03;99595.31;;;5.09;100.00
36380;BME280;22411;53.016;18.632;2023-03-13T07:28:31;99598.28;;;5.17;100.00
36380;BME280;22411;53.016;18.632;2023-03-13T07:31:09;99589.16;;;5.26;100.00
36380;BME280;22411;53.016;18.632;2023-03-13T07:33:38;99590.81;;;5.41;100.00
36380;BME280;22411;53.016;18.632;2023-03-13T07:36:06;99585.38;;;5.46;100.00
36380;BME280;22411;53.016;18.632;2023-03-13T07:38:32;99573.50;;;5.58;100.00
36380;BME280;22411;53.016;18.632;2023-03-13T07:41:00;99576.69;;;5.75;100.00
36380;BME280;22411;53.016;18.632;2023-03-13T07:43:27;99577.84;;;5.84;100.00
36380;BME280;22411;53.016;18.632;2023-03-13T07:46:02;99578.53;;;6.00;100.00
36380;BME280;22411;53.016;18.632;2023-03-13T07:48:34;99571.69;;;6.14;100.00
36380;BME280;22411;53.016;18.632;2023-03-13T07:51:02;99576.25;;;6.23;100.00
36380;BME280;22411;53.016;18.632;2023-03-13T07:53:30;99565.03;;;6.37;100.00
36380;BME280;22411;53.016;18.632;2023-03-13T07:56:05;99555.38;;;6.53;100.00
36380;BME280;22411;53.016;18.632;2023-03-13T07:58:34;99563.84;;;6.55;100.00
36380;BME280;22411;53.016;18.632;2023-03-13T08:01:15;99557.56;;;6.59;100.00
36380;BME280;22411;53.016;18.632;2023-03-13T08:03:42;99561.03;;;6.58;100.00
36380;BME280;22411;53.016;18.632;2023-03-13T08:06:12;99555.59;;;6.63;100.00
36380;BME280;22411;53.016;18.632;2023-03-13T08:08:42;99550.97;;;6.68;100.00
36380;BME280;22411;53.016;18.632;2023-03-13T08:11:11;99544.16;;;6.79;100.00
36380;BME280;22411;53.016;18.632;2023-03-13T08:13:40;99547.66;;;6.78;100.00
36380;BME280;22411;53.016;18.632;2023-03-13T08:16:08;99551.34;;;6.74;100.00
36380;BME280;22411;53.016;18.632;2023-03-13T08:18:38;99536.34;;;6.81;100.00
36380;BME280;22411;53.016;18.632;2023-03-13T08:21:11;99537.66;;;6.87;100.00
36380;BME280;22411;53.016;18.632;2023-03-13T08:23:39;99527.97;;;6.90;100.00
36380;BME280;22411;53.016;18.632;2023-03-13T08:26:06;99554.03;;;6.98;100.00
36380;BME280;22411;53.016;18.632;2023-03-13T08:28:34;99530.41;;;7.04;100.00
36380;BME280;22411;53.016;18.632;2023-03-13T08:31:08;99517.94;;;7.11;100.00
36380;BME280;22411;53.016;18.632;2023-03-13T08:33:35;99519.25;;;7.17;100.00
36380;BME280;22411;53.016;18.632;2023-03-13T08:36:25;99520.50;;;7.24;100.00
36380;BME280;22411;53.016;18.632;2023-03-13T08:38:54;99526.72;;;7.32;100.00
36380;BME280;22411;53.016;18.632;2023-03-13T08:41:27;99523.00;;;7.37;100.00
36380;BME280;22411;53.016;18.632;2023-03-13T08:43:57;99510.13;;;7.37;100.00
36380;BME280;22411;53.016;18.632;2023-03-13T08:46:32;99523.84;;;7.37;100.00
36380;BME280;22411;53.016;18.632;2023-03-13T08:49:00;99512.72;;;7.37;100.00
36380;BME280;22411;53.016;18.632;2023-03-13T08:51:30;99507.56;;;7.37;100.00
36380;BME280;22411;53.016;18.632;2023-03-13T08:53:58;99515.41;;;7.35;100.00
36380;BME280;22411;53.016;18.632;2023-03-13T08:56:28;99528.78;;;7.40;100.00
36380;BME280;22411;53.016;18.632;2023-03-13T08:58:59;99516.22;;;7.36;100.00
36380;BME280;22411;53.016;18.632;2023-03-13T09:01:28;99518.09;;;7.33;100.00
36380;BME280;22411;53.016;18.632;2023-03-13T09:03:55;99499.44;;;7.30;100.00
36380;BME280;22411;53.016;18.632;2023-03-13T09:06:23;99497.06;;;7.27;100.00
36380;BME280;22411;53.016;18.632;2023-03-13T09:08:54;99510.06;;;7.25;100.00
36380;BME280;22411;53.016;18.632;2023-03-13T09:11:21;99497.78;;;7.29;100.00
36380;BME280;22411;53.016;18.632;2023-03-13T09:13:48;99491.69;;;7.30;100.00
36380;BME280;22411;53.016;18.632;2023-03-13T09:16:23;99486.44;;;7.31;100.00
36380;BME280;22411;53.016;18.632;2023-03-13T09:18:52;99477.34;;;7.39;100.00
36380;BME280;22411;53.016;18.632;2023-03-13T09:21:24;99480.31;;;7.45;100.00
36380;BME280;22411;53.016;18.632;2023-03-13T09:23:51;99477.28;;;7.51;100.00
36380;BME280;22411;53.016;18.632;2023-03-13T09:26:22;99459.94;;;7.53;100.00
36380;BME280;22411;53.016;18.632;2023-03-13T09:28:52;99451.50;;;7.51;100.00
36380;BME280;22411;53.016;18.632;2023-03-13T09:31:27;99443.91;;;7.61;100.00
36380;BME280;22411;53.016;18.632;2023-03-13T09:33:59;99447.94;;;7.65;100.00
36380;BME280;22411;53.016;18.632;2023-03-13T09:36:26;99441.38;;;7.72;100.00
36380;BME280;22411;53.016;18.632;2023-03-13T09:38:56;99434.28;;;7.87;100.00
36380;BME280;22411;53.016;18.632;2023-03-13T09:44:10;99414.97;;;8.15;100.00
36380;BME280;22411;53.016;18.632;2023-03-13T09:46:44;99419.44;;;8.13;100.00
36380;BME280;22411;53.016;18.632;2023-03-13T09:49:32;99418.69;;;8.11;100.00
36380;BME280;22411;53.016;18.632;2023-03-13T09:52:18;99405.31;;;8.06;100.00
36380;BME280;22411;53.016;18.632;2023-03-13T09:54:46;99407.22;;;8.15;100.00
36380;BME280;22411;53.016;18.632;2023-03-13T09:57:23;99399.94;;;8.09;100.00
36380;BME280;22411;53.016;18.632;2023-03-13T09:59:58;99391.97;;;8.12;100.00
36380;BME280;22411;53.016;18.632;2023-03-13T10:02:35;99395.94;;;8.05;100.00
36380;BME280;22411;53.016;18.632;2023-03-13T10:07:36;99379.19;;;8.10;100.00
36380;BME280;22411;53.016;18.632;2023-03-13T10:10:03;99367.22;;;8.09;100.00
36380;BME280;22411;53.016;18.632;2023-03-13T10:12:40;99365.91;;;8.15;100.00
36380;BME280;22411;53.016;18.632;2023-03-13T10:17:43;99364.16;;;8.16;100.00
36380;BME280;22411;53.016;18.632;2023-03-13T10:20:22;99361.22;;;8.09;100.00
36380;BME280;22411;53.016;18.632;2023-03-13T10:22:56;99347.38;;;7.99;100.00
36380;BME280;22411;53.016;18.632;2023-03-13T10:27:57;99341.88;;;8.03;100.00
36380;BME280;22411;53.016;18.632;2023-03-13T10:30:27;99342.69;;;8.04;100.00
36380;BME280;22411;53.016;18.632;2023-03-13T10:32:58;99349.84;;;8.00;100.00
36380;BME280;22411;53.016;18.632;2023-03-13T10:35:32;99338.69;;;8.11;100.00
36380;BME280;22411;53.016;18.632;2023-03-13T10:38:07;99330.13;;;8.10;100.00
36380;BME280;22411;53.016;18.632;2023-03-13T10:40:34;99327.22;;;8.15;100.00
36380;BME280;22411;53.016;18.632;2023-03-13T10:43:11;99327.19;;;8.26;100.00
36380;BME280;22411;53.016;18.632;2023-03-13T10:45:37;99319.47;;;8.26;100.00
36380;BME280;22411;53.016;18.632;2023-03-13T10:48:14;99311.50;;;8.29;100.00
36380;BME280;22411;53.016;18.632;2023-03-13T10:50:46;99313.13;;;8.30;100.00
36380;BME280;22411;53.016;18.632;2023-03-13T10:53:20;99301.63;;;8.34;100.00
36380;BME280;22411;53.016;18.632;2023-03-13T10:55:47;99304.31;;;8.33;100.00
36380;BME280;22411;53.016;18.632;2023-03-13T10:58:19;99303.06;;;8.38;100.00
36380;BME280;22411;53.016;18.632;2023-03-13T11:00:48;99296.47;;;8.46;100.00
36380;BME280;22411;53.016;18.632;2023-03-13T11:03:22;99300.56;;;8.48;100.00
36380;BME280;22411;53.016;18.632;2023-03-13T11:06:02;99302.56;;;8.45;100.00
36380;BME280;22411;53.016;18.632;2023-03-13T11:08:35;99278.75;;;8.41;100.00
36380;BME280;22411;53.016;18.632;2023-03-13T11:11:04;99276.41;;;8.49;100.00
36380;BME280;22411;53.016;18.632;2023-03-13T11:13:41;99266.53;;;8.54;100.00
36380;BME280;22411;53.016;18.632;2023-03-13T11:16:20;99261.22;;;8.56;100.00
36380;BME280;22411;53.016;18.632;2023-03-13T11:19:06;99257.91;;;8.65;100.00
36380;BME280;22411;53.016;18.632;2023-03-13T11:24:27;99263.41;;;8.72;100.00
36380;BME280;22411;53.016;18.632;2023-03-13T11:35:27;99244.41;;;8.61;100.00
36380;BME280;22411;53.016;18.632;2023-03-13T11:37:56;99241.72;;;8.63;100.00
36380;BME280;22411;53.016;18.632;2023-03-13T11:43:00;99220.69;;;8.68;100.00
36380;BME280;22411;53.016;18.632;2023-03-13T11:54:59;99209.47;;;8.78;100.00
36380;BME280;22411;53.016;18.632;2023-03-13T11:57:43;99197.25;;;8.80;100.00
36380;BME280;22411;53.016;18.632;2023-03-13T12:00:32;99199.38;;;8.75;100.00
36380;BME280;22411;53.016;18.632;2023-03-13T12:04:29;99196.47;;;8.69;100.00
36380;BME280;22411;53.016;18.632;2023-03-13T12:06:28;99173.81;;;8.72;100.00
36380;BME280;22411;53.016;18.632;2023-03-13T12:09:13;99165.25;;;8.72;100.00
36380;BME280;22411;53.016;18.632;2023-03-13T12:12:11;99169.97;;;8.67;100.00
36380;BME280;22411;53.016;18.632;2023-03-13T12:14:50;99149.69;;;8.62;100.00
36380;BME280;22411;53.016;18.632;2023-03-13T12:17:34;99151.56;;;8.60;100.00
36380;BME280;22411;53.016;18.632;2023-03-13T12:20:11;99150.63;;;8.61;100.00
36380;BME280;22411;53.016;18.632;2023-03-13T12:25:21;99142.75;;;8.62;100.00
36380;BME280;22411;53.016;18.632;2023-03-13T12:27:51;99131.91;;;8.69;100.00
36380;BME280;22411;53.016;18.632;2023-03-13T12:30:35;99122.97;;;8.73;100.00
36380;BME280;22411;53.016;18.632;2023-03-13T12:33:23;99123.53;;;8.76;100.00
36380;BME280;22411;53.016;18.632;2023-03-13T12:36:03;99106.78;;;8.71;100.00
36380;BME280;22411;53.016;18.632;2023-03-13T12:38:38;99102.69;;;8.68;100.00
36380;BME280;22411;53.016;18.632;2023-03-13T12:41:17;99123.03;;;8.61;100.00
36380;BME280;22411;53.016;18.632;2023-03-13T12:43:51;99132.09;;;8.56;100.00
36380;BME280;22411;53.016;18.632;2023-03-13T12:46:38;99104.19;;;8.50;100.00
36380;BME280;22411;53.016;18.632;2023-03-13T12:57:08;99079.84;;;8.31;100.00
36380;BME280;22411;53.016;18.632;2023-03-13T12:59:46;99071.53;;;8.28;100.00
36380;BME280;22411;53.016;18.632;2023-03-13T13:02:20;99074.94;;;8.28;100.00
36380;BME280;22411;53.016;18.632;2023-03-13T13:04:50;99089.63;;;8.28;100.00
36380;BME280;22411;53.016;18.632;2023-03-13T13:07:33;99067.44;;;8.25;100.00
36380;BME280;22411;53.016;18.632;2023-03-13T13:10:13;99066.75;;;8.23;100.00
36380;BME280;22411;53.016;18.632;2023-03-13T13:12:46;99064.16;;;8.23;100.00
36380;BME280;22411;53.016;18.632;2023-03-13T13:15:34;99068.75;;;8.20;100.00
36380;BME280;22411;53.016;18.632;2023-03-13T13:18:24;99059.81;;;8.24;100.00
36380;BME280;22411;53.016;18.632;2023-03-13T13:21:19;99039.03;;;8.25;100.00
36380;BME280;22411;53.016;18.632;2023-03-13T13:23:51;99044.34;;;8.24;100.00
36380;BME280;22411;53.016;18.632;2023-03-13T13:31:44;99014.75;;;8.28;100.00
36380;BME280;22411;53.016;18.632;2023-03-13T13:36:59;99030.78;;;8.31;100.00
36380;BME280;22411;53.016;18.632;2023-03-13T13:40:47;99030.66;;;8.33;100.00
36380;BME280;22411;53.016;18.632;2023-03-13T13:45:36;99013.28;;;8.35;100.00
36380;BME280;22411;53.016;18.632;2023-03-13T13:48:42;99014.72;;;8.39;100.00
36380;BME280;22411;53.016;18.632;2023-03-13T13:51:21;99028.69;;;8.36;100.00
36380;BME280;22411;53.016;18.632;2023-03-13T13:54:02;99020.94;;;8.36;100.00
36380;BME280;22411;53.016;18.632;2023-03-13T14:04:53;99013.28;;;8.35;100.00
36380;BME280;22411;53.016;18.632;2023-03-13T14:07:28;99038.19;;;8.36;100.00
36380;BME280;22411;53.016;18.632;2023-03-13T14:10:41;99002.88;;;8.36;100.00
36380;BME280;22411;53.016;18.632;2023-03-13T14:13:16;98995.69;;;8.40;100.00
36380;BME280;22411;53.016;18.632;2023-03-13T14:15:51;98999.09;;;8.41;100.00
36380;BME280;22411;53.016;18.632;2023-03-13T14:18:23;98990.53;;;8.40;100.00